Time;durP1;ratioP1;P1;durP2;ratioP2;P2;SDS_P1;SDS_P2;PMS_P1;PMS_P2;Temp;Humidity;BMP_temperature;BMP_pressure;BME280_temperature;BME280_humidity;BME280_pressure;Samples;Min_cycle;Max_cycle;Signal;HPM_P1;HPM_P2
2020/12/30 00:02:23;;;;;;;10.57;8.10;;;3.40;99.90;;;;;;5030459;28;20952;-86
2020/12/30 00:04:49;;;;;;;10.80;8.03;;;3.30;99.90;;;;;;5035918;28;20449;-86
2020/12/30 00:07:16;;;;;;;12.30;6.93;;;3.20;99.90;;;;;;5036550;28;20901;-87
2020/12/30 00:09:42;;;;;;;13.43;8.50;;;3.20;99.90;;;;;;5035981;28;20440;-86
2020/12/30 00:12:09;;;;;;;11.47;6.97;;;3.20;99.90;;;;;;5036487;28;20582;-86
2020/12/30 00:14:35;;;;;;;11.17;7.97;;;3.10;99.90;;;;;;5033817;28;20559;-86
2020/12/30 00:17:05;;;;;;;9.97;6.57;;;3.00;99.90;;;;;;5035580;28;20477;-86
2020/12/30 00:19:33;;;;;;;12.00;7.90;;;3.00;99.90;;;;;;5035953;28;20958;-86
2020/12/30 00:22:04;;;;;;;11.00;7.57;;;3.00;99.90;;;;;;5036449;28;20484;-87
2020/12/30 00:24:30;;;;;;;10.93;6.50;;;2.90;99.90;;;;;;5035761;28;20507;-87
2020/12/30 00:26:56;;;;;;;12.10;7.97;;;2.90;99.90;;;;;;5035971;28;20566;-87
2020/12/30 00:29:26;;;;;;;10.20;7.00;;;2.80;99.90;;;;;;5036291;28;20556;-87
2020/12/30 00:31:52;;;;;;;7.20;5.90;;;2.70;99.90;;;;;;5031927;28;20483;-88
2020/12/30 00:34:19;;;;;;;9.18;6.00;;;2.60;99.90;;;;;;5034400;28;20468;-87
2020/12/30 00:36:46;;;;;;;11.00;6.63;;;2.60;99.90;;;;;;5035951;28;20249;-87
2020/12/30 00:39:13;;;;;;;11.50;6.83;;;2.60;99.90;;;;;;5036035;28;20472;-87
2020/12/30 00:41:39;;;;;;;9.50;6.60;;;2.60;99.90;;;;;;5035265;28;20579;-87
2020/12/30 00:44:07;;;;;;;9.63;6.60;;;2.40;99.90;;;;;;5036008;28;20496;-87
2020/12/30 00:46:33;;;;;;;9.80;6.80;;;2.40;99.90;;;;;;5035486;28;20536;-88
2020/12/30 00:48:59;;;;;;;10.98;6.78;;;2.30;99.90;;;;;;5034908;28;20555;-87
2020/12/30 00:51:26;;;;;;;10.40;6.50;;;2.20;99.90;;;;;;5034275;28;20265;-88
2020/12/30 00:53:53;;;;;;;9.20;7.10;;;2.20;99.90;;;;;;5035979;28;20495;-85
2020/12/30 00:56:20;;;;;;;12.55;7.07;;;2.30;99.90;;;;;;5035626;28;20478;-88
2020/12/30 00:58:46;;;;;;;11.05;7.32;;;2.20;99.90;;;;;;5035540;28;20265;-87
2020/12/30 01:01:13;;;;;;;8.73;6.00;;;2.20;99.90;;;;;;5035668;28;20276;-87
2020/12/30 01:03:40;;;;;;;16.83;6.85;;;2.10;99.90;;;;;;5035519;28;20465;-87
2020/12/30 01:06:10;;;;;;;10.70;6.75;;;2.10;99.90;;;;;;5035735;28;20218;-88
2020/12/30 01:08:37;;;;;;;9.18;7.95;;;2.00;99.90;;;;;;5035492;28;20202;-88
2020/12/30 01:11:04;;;;;;;17.55;7.57;;;2.00;99.90;;;;;;5035792;28;20271;-87
2020/12/30 01:13:31;;;;;;;10.80;7.68;;;2.00;99.90;;;;;;5035738;28;20213;-86
2020/12/30 01:15:57;;;;;;;10.10;6.63;;;2.00;99.90;;;;;;5035633;28;20597;-85
2020/12/30 01:18:24;;;;;;;10.07;7.33;;;2.00;99.90;;;;;;5035508;28;20215;-85
2020/12/30 01:20:50;;;;;;;11.48;7.97;;;1.90;99.90;;;;;;5034975;28;20481;-86
2020/12/30 01:23:16;;;;;;;11.70;8.25;;;1.90;99.90;;;;;;5035285;28;20234;-85
2020/12/30 01:25:43;;;;;;;11.18;7.57;;;1.80;99.90;;;;;;5034503;28;20630;-86
2020/12/30 01:28:10;;;;;;;11.25;6.78;;;1.70;99.90;;;;;;5034972;28;20215;-85
2020/12/30 01:30:36;;;;;;;9.50;6.85;;;1.70;99.90;;;;;;5035205;28;20210;-86
2020/12/30 01:33:03;;;;;;;13.60;8.35;;;1.60;99.90;;;;;;5034437;28;20670;-86
2020/12/30 01:35:29;;;;;;;13.35;7.30;;;1.60;99.90;;;;;;5034910;28;20300;-86
2020/12/30 01:37:55;;;;;;;14.32;8.30;;;1.50;99.90;;;;;;5035241;28;20233;-86
2020/12/30 01:40:22;;;;;;;12.82;8.10;;;1.40;99.90;;;;;;5035143;28;20207;-86
2020/12/30 01:42:49;;;;;;;13.60;7.55;;;1.40;99.90;;;;;;5034224;28;20718;-86
2020/12/30 01:45:16;;;;;;;10.50;7.10;;;1.40;99.90;;;;;;5035318;28;20219;-86
2020/12/30 01:47:46;;;;;;;13.40;6.70;;;1.40;99.90;;;;;;5034473;28;20252;-86
2020/12/30 01:50:14;;;;;;;9.23;6.85;;;1.40;99.90;;;;;;5035023;28;20213;-86
2020/12/30 01:52:41;;;;;;;13.38;7.60;;;1.40;99.90;;;;;;5034443;28;20222;-86
2020/12/30 01:55:08;;;;;;;10.63;7.30;;;1.30;99.90;;;;;;5034448;28;20675;-86
2020/12/30 01:57:36;;;;;;;9.90;6.72;;;1.30;99.90;;;;;;5037035;28;20203;-87
2020/12/30 02:00:04;;;;;;;11.75;7.80;;;1.30;99.90;;;;;;5034054;28;20224;-86
2020/12/30 02:02:33;;;;;;;8.73;7.50;;;1.30;99.90;;;;;;5034327;28;20241;-87
2020/12/30 02:05:00;;;;;;;12.70;7.68;;;1.20;99.90;;;;;;5034561;28;20230;-87
2020/12/30 02:07:28;;;;;;;11.00;7.53;;;1.20;99.90;;;;;;5034747;28;20206;-86
2020/12/30 02:09:56;;;;;;;9.70;6.60;;;1.20;99.90;;;;;;5034128;28;20215;-86
2020/12/30 02:12:23;;;;;;;13.68;8.48;;;1.20;99.90;;;;;;5034434;28;20232;-86
2020/12/30 02:14:50;;;;;;;10.73;7.32;;;1.10;99.90;;;;;;5033793;28;20309;-86
2020/12/30 02:17:17;;;;;;;10.50;7.65;;;1.10;99.90;;;;;;5034374;28;20230;-87
2020/12/30 02:19:45;;;;;;;8.95;6.80;;;1.10;99.90;;;;;;5034127;28;20296;-87
2020/12/30 02:22:17;;;;;;;13.07;7.55;;;1.10;99.90;;;;;;5034529;28;20209;-87
2020/12/30 02:24:45;;;;;;;10.68;6.88;;;1.10;99.90;;;;;;5034005;28;20197;-86
2020/12/30 02:27:11;;;;;;;12.60;7.68;;;1.00;99.90;;;;;;5034408;28;20218;-86
2020/12/30 02:29:38;;;;;;;10.60;7.82;;;1.00;99.90;;;;;;5035860;28;20210;-86
2020/12/30 02:32:05;;;;;;;10.73;7.13;;;1.00;99.90;;;;;;5035443;28;20247;-86
2020/12/30 02:34:31;;;;;;;11.02;6.93;;;0.90;99.90;;;;;;5034821;28;20297;-86
2020/12/30 02:36:58;;;;;;;8.88;6.65;;;0.90;99.90;;;;;;5035541;28;20301;-86
2020/12/30 02:39:28;;;;;;;14.32;7.57;;;0.90;99.90;;;;;;5036504;28;20237;-87
2020/12/30 02:41:56;;;;;;;14.45;8.23;;;0.90;99.90;;;;;;5035734;28;20214;-86
2020/12/30 02:44:22;;;;;;;11.02;7.25;;;0.90;99.90;;;;;;5035504;28;20216;-86
2020/12/30 02:46:49;;;;;;;13.05;7.25;;;0.90;99.90;;;;;;5035542;28;20251;-86
2020/12/30 02:49:17;;;;;;;8.70;6.97;;;0.80;99.90;;;;;;5035764;28;20247;-85
2020/12/30 02:51:44;;;;;;;9.02;7.55;;;0.90;99.90;;;;;;5036954;28;20286;-87
2020/12/30 02:54:11;;;;;;;11.65;8.23;;;0.90;99.90;;;;;;5036346;28;20288;-85
2020/12/30 02:56:37;;;;;;;9.40;7.25;;;0.90;99.90;;;;;;5035555;28;20194;-85
2020/12/30 02:59:05;;;;;;;12.48;8.70;;;1.00;99.90;;;;;;5035445;28;20641;-85
2020/12/30 03:01:38;;;;;;;12.88;7.70;;;1.00;99.90;;;;;;5033772;28;20222;-91
2020/12/30 03:04:04;;;;;;;11.85;7.85;;;1.10;99.90;;;;;;5034549;28;20209;-85
2020/12/30 03:06:31;;;;;;;13.10;9.30;;;1.10;99.90;;;;;;5034558;28;20638;-89
2020/12/30 03:08:57;;;;;;;14.18;8.35;;;1.20;99.90;;;;;;5036236;28;20297;-85
2020/12/30 03:11:25;;;;;;;12.13;8.43;;;1.20;99.90;;;;;;5034948;28;20629;-85
2020/12/30 03:13:52;;;;;;;11.07;7.85;;;1.30;99.90;;;;;;5038195;28;20212;-85
2020/12/30 03:16:19;;;;;;;13.25;9.15;;;1.30;99.90;;;;;;5037551;28;20359;-85
2020/12/30 03:18:47;;;;;;;11.60;7.82;;;1.40;99.90;;;;;;5037973;28;20295;-85
2020/12/30 03:21:13;;;;;;;12.07;7.88;;;1.40;99.90;;;;;;5038414;28;20211;-84
2020/12/30 03:23:39;;;;;;;12.65;9.70;;;1.50;99.90;;;;;;5036873;28;20245;-85
2020/12/30 03:26:06;;;;;;;11.97;8.50;;;1.50;99.90;;;;;;5037570;28;20292;-84
2020/12/30 03:28:32;;;;;;;13.98;8.00;;;1.60;99.90;;;;;;5038403;28;20931;-88
2020/12/30 03:30:59;;;;;;;15.60;10.88;;;1.70;99.90;;;;;;5037800;28;20214;-86
2020/12/30 03:33:26;;;;;;;15.30;10.00;;;1.70;99.90;;;;;;5036528;28;20677;-86
2020/12/30 03:35:52;;;;;;;12.60;8.82;;;1.80;99.90;;;;;;5037025;28;20332;-84
2020/12/30 03:38:19;;;;;;;13.43;8.95;;;1.90;99.90;;;;;;5036994;28;20306;-85
2020/12/30 03:40:45;;;;;;;13.88;9.52;;;2.00;99.90;;;;;;5036808;28;20576;-85
2020/12/30 03:43:11;;;;;;;14.93;9.32;;;2.10;99.90;;;;;;5037469;28;20292;-85
2020/12/30 03:45:38;;;;;;;13.63;10.20;;;2.10;99.90;;;;;;5036762;28;20256;-86
2020/12/30 03:48:04;;;;;;;15.55;10.23;;;2.20;99.90;;;;;;5037218;28;20233;-84
2020/12/30 03:50:34;;;;;;;15.90;10.40;;;2.30;99.90;;;;;;5037342;28;20348;-84
2020/12/30 03:53:00;;;;;;;15.93;10.33;;;2.30;99.90;;;;;;5037136;28;20225;-84
2020/12/30 03:55:27;;;;;;;14.07;10.80;;;2.40;99.90;;;;;;5037126;28;20456;-84
2020/12/30 03:57:53;;;;;;;15.70;10.18;;;2.50;99.90;;;;;;5036238;28;20796;-85
2020/12/30 04:00:19;;;;;;;12.65;10.02;;;2.50;99.90;;;;;;5037048;28;20213;-85
2020/12/30 04:02:47;;;;;;;19.90;12.30;;;2.50;99.90;;;;;;5032033;28;20230;-85
2020/12/30 04:05:14;;;;;;;24.43;12.77;;;2.70;99.90;;;;;;5022557;28;20453;-85
2020/12/30 04:07:41;;;;;;;18.10;11.25;;;2.80;99.90;;;;;;5035658;28;20460;-85
2020/12/30 04:10:07;;;;;;;18.15;12.35;;;2.90;99.90;;;;;;5036930;28;20206;-85
2020/12/30 04:12:34;;;;;;;17.47;11.50;;;2.80;99.90;;;;;;5020172;28;20257;-90
2020/12/30 04:15:00;;;;;;;20.47;13.97;;;2.90;99.90;;;;;;5036888;28;20936;-86
2020/12/30 04:17:27;;;;;;;22.50;13.50;;;3.00;99.90;;;;;;5027942;28;20543;-85
2020/12/30 04:19:53;;;;;;;20.33;13.60;;;3.00;99.90;;;;;;5036245;28;20753;-85
2020/12/30 04:22:19;;;;;;;21.37;14.10;;;3.10;99.90;;;;;;5021437;28;20930;-86
2020/12/30 04:24:53;;;;;;;19.43;15.60;;;3.10;99.90;;;;;;5031693;28;20536;-86
2020/12/30 04:27:20;;;;;;;22.77;15.48;;;3.10;99.90;;;;;;5025045;28;20782;-87
2020/12/30 04:29:46;;;;;;;22.87;15.10;;;3.10;99.90;;;;;;5025749;28;20265;-86
2020/12/30 04:32:13;;;;;;;24.10;16.23;;;3.20;99.90;;;;;;5008768;28;20484;-87
2020/12/30 04:34:39;;;;;;;19.00;14.40;;;3.20;99.90;;;;;;5030572;28;20784;-86
2020/12/30 04:37:05;;;;;;;21.60;14.33;;;3.20;99.90;;;;;;5033549;28;20922;-87
2020/12/30 04:39:32;;;;;;;22.13;15.37;;;3.20;99.90;;;;;;5017854;28;20453;-87
2020/12/30 04:42:01;;;;;;;19.70;13.57;;;3.30;99.90;;;;;;5018149;28;20462;-87
2020/12/30 04:44:31;;;;;;;18.97;13.23;;;3.40;99.90;;;;;;5036075;28;20487;-86
2020/12/30 04:46:59;;;;;;;22.77;14.83;;;3.40;99.90;;;;;;5024035;28;20446;-87
2020/12/30 04:49:26;;;;;;;19.10;14.80;;;3.40;99.90;;;;;;5023961;28;20965;-87
2020/12/30 04:51:53;;;;;;;19.83;14.00;;;3.40;99.90;;;;;;5025221;28;20828;-87
2020/12/30 04:54:21;;;;;;;19.70;14.40;;;3.40;99.90;;;;;;5015161;28;20819;-87
2020/12/30 04:57:01;;;;;;;22.00;14.10;;;3.40;99.90;;;;;;5017510;28;20835;-87
2020/12/30 04:59:28;;;;;;;18.67;13.10;;;3.50;99.90;;;;;;5032717;28;20492;-87
2020/12/30 05:02:04;;;;;;;27.60;15.60;;;3.40;99.90;;;;;;5030548;28;20728;-87
2020/12/30 05:04:31;;;;;;;22.17;14.23;;;3.40;99.90;;;;;;5018202;28;20931;-87
2020/12/30 05:07:07;;;;;;;20.37;14.17;;;3.40;99.90;;;;;;5021428;28;20469;-87
2020/12/30 05:09:35;;;;;;;17.70;12.53;;;3.30;99.90;;;;;;5028325;28;20488;-87
2020/12/30 05:12:10;;;;;;;19.00;14.37;;;3.30;99.90;;;;;;5015790;28;20516;-87
2020/12/30 05:14:37;;;;;;;23.05;14.65;;;3.20;99.90;;;;;;5015403;28;20532;-89
2020/12/30 05:17:05;;;;;;;20.40;15.53;;;3.10;99.90;;;;;;5036533;28;20697;-87
2020/12/30 05:19:32;;;;;;;18.63;13.60;;;3.00;99.90;;;;;;5035585;28;20595;-87
2020/12/30 05:21:58;;;;;;;22.17;14.50;;;3.00;99.90;;;;;;5034873;28;20463;-86
2020/12/30 05:24:25;;;;;;;21.03;13.60;;;3.10;99.90;;;;;;5035023;28;20925;-86
2020/12/30 05:26:52;;;;;;;20.53;14.40;;;3.10;99.90;;;;;;5034511;28;20457;-86
2020/12/30 05:29:21;;;;;;;19.73;13.87;;;3.20;99.90;;;;;;5034902;28;20467;-86
2020/12/30 05:31:51;;;;;;;17.03;13.43;;;3.20;99.90;;;;;;5034689;28;20516;-86
2020/12/30 05:34:19;;;;;;;18.43;13.63;;;3.30;99.90;;;;;;5035282;28;20471;-86
2020/12/30 05:36:46;;;;;;;18.83;14.50;;;3.40;99.90;;;;;;5033296;28;20909;-86
2020/12/30 05:39:20;;;;;;;19.40;13.90;;;3.30;99.90;;;;;;5035125;28;20483;-86
2020/12/30 05:41:46;;;;;;;18.42;13.07;;;3.40;99.90;;;;;;5034637;28;20426;-87
2020/12/30 05:44:20;;;;;;;19.83;14.80;;;3.40;99.90;;;;;;5035037;28;20229;-88
2020/12/30 05:46:47;;;;;;;18.43;13.93;;;3.30;99.90;;;;;;5033855;28;20473;-87
2020/12/30 05:49:32;;;;;;;21.15;14.90;;;3.20;99.90;;;;;;5034862;28;20976;-87
2020/12/30 05:51:59;;;;;;;20.95;14.95;;;3.20;99.90;;;;;;5034326;28;20694;-86
2020/12/30 05:54:26;;;;;;;25.67;16.02;;;3.30;99.90;;;;;;5035748;28;20214;-87
2020/12/30 05:56:52;;;;;;;20.95;14.80;;;3.20;99.90;;;;;;5034324;28;20202;-86
2020/12/30 05:59:23;;;;;;;22.47;15.77;;;3.30;99.90;;;;;;5035115;28;20252;-87
2020/12/30 06:01:52;;;;;;;21.53;14.77;;;3.30;99.90;;;;;;5033709;28;20801;-87
2020/12/30 06:04:19;;;;;;;20.57;13.80;;;3.30;99.90;;;;;;5034667;28;20463;-87
2020/12/30 06:06:47;;;;;;;20.93;14.00;;;3.40;99.90;;;;;;5033995;28;20531;-86
2020/12/30 06:09:17;;;;;;;19.23;13.80;;;3.40;99.90;;;;;;5034627;28;20492;-85
2020/12/30 06:11:51;;;;;;;19.40;13.90;;;3.50;99.90;;;;;;5033636;28;20437;-86
2020/12/30 06:14:19;;;;;;;20.77;14.77;;;3.50;99.90;;;;;;5034326;28;20767;-86
2020/12/30 06:16:46;;;;;;;21.60;15.20;;;3.60;99.90;;;;;;5017243;28;20540;-86
2020/12/30 06:19:13;;;;;;;19.77;14.30;;;3.60;99.90;;;;;;5014389;28;20834;-85
2020/12/30 06:21:46;;;;;;;20.80;14.00;;;3.60;99.90;;;;;;5014172;28;20453;-85
2020/12/30 06:24:14;;;;;;;20.20;13.97;;;3.60;99.90;;;;;;5014597;28;20517;-85
2020/12/30 06:26:41;;;;;;;23.93;15.20;;;3.70;99.90;;;;;;5013568;28;20881;-85
2020/12/30 06:29:13;;;;;;;19.43;12.87;;;3.70;99.90;;;;;;5014362;28;20453;-85
2020/12/30 06:31:45;;;;;;;21.60;14.63;;;3.80;99.90;;;;;;5013617;28;20450;-88
2020/12/30 06:34:12;;;;;;;19.50;13.83;;;3.80;99.90;;;;;;5014318;28;20537;-82
2020/12/30 06:36:43;;;;;;;17.03;13.23;;;3.70;99.90;;;;;;5015142;28;20549;-93
2020/12/30 06:39:22;;;;;;;17.73;11.87;;;3.80;99.90;;;;;;5000316;28;20530;-85
2020/12/30 06:42:00;;;;;;;20.70;13.57;;;3.90;99.90;;;;;;4994474;28;20522;-86
2020/12/30 06:44:37;;;;;;;21.77;14.23;;;3.90;99.90;;;;;;4994764;28;20526;-86
2020/12/30 06:47:05;;;;;;;19.33;13.43;;;3.80;99.90;;;;;;4993540;28;20458;-86
2020/12/30 06:49:32;;;;;;;21.63;15.30;;;3.90;99.90;;;;;;4994359;28;20446;-86
2020/12/30 06:51:58;;;;;;;18.97;13.37;;;3.80;99.90;;;;;;4994534;28;20483;-86
2020/12/30 06:54:47;;;;;;;18.53;13.40;;;3.90;99.90;;;;;;5015009;28;20522;-86
2020/12/30 06:57:35;;;;;;;16.60;12.00;;;3.90;99.90;;;;;;5015145;28;20553;-86
2020/12/30 07:00:37;;;;;;;19.37;13.33;;;3.90;99.90;;;;;;5013977;28;20930;-87
2020/12/30 07:03:15;;;;;;;18.43;12.73;;;3.90;99.90;;;;;;5001909;28;20845;-87
2020/12/30 07:05:43;;;;;;;18.60;12.70;;;4.00;99.90;;;;;;5010772;28;20569;-87
2020/12/30 07:08:09;;;;;;;16.80;13.00;;;4.10;99.90;;;;;;5003001;28;20537;-86
2020/12/30 07:10:43;;;;;;;15.50;12.07;;;4.00;99.90;;;;;;4995128;28;20462;-87
2020/12/30 07:13:25;;;;;;;15.87;11.97;;;4.10;99.90;;;;;;4994887;28;20855;-87
2020/12/30 07:16:17;;;;;;;17.80;12.00;;;4.10;99.90;;;;;;5004663;28;20494;-87
2020/12/30 07:18:47;;;;;;;15.73;11.97;;;4.20;99.90;;;;;;5014423;28;20521;-87
2020/12/30 07:21:14;;;;;;;18.60;12.70;;;4.20;99.90;;;;;;5034530;28;20488;-87
2020/12/30 07:23:42;;;;;;;16.60;12.40;;;4.20;99.90;;;;;;5028787;28;20450;-87
2020/12/30 07:26:16;;;;;;;16.07;11.80;;;4.20;99.90;;;;;;5022009;28;20470;-86
2020/12/30 07:28:43;;;;;;;15.57;11.40;;;4.20;99.90;;;;;;5033563;28;20543;-89
2020/12/30 07:31:10;;;;;;;17.23;12.60;;;4.30;99.90;;;;;;5033283;28;20498;-86
2020/12/30 07:33:37;;;;;;;19.80;11.80;;;4.30;99.90;;;;;;5033326;28;20568;-86
2020/12/30 07:36:05;;;;;;;17.43;12.67;;;4.20;99.90;;;;;;5021820;28;20451;-86
2020/12/30 07:38:33;;;;;;;19.33;13.20;;;4.30;99.90;;;;;;5033461;28;20483;-86
2020/12/30 07:41:05;;;;;;;17.30;12.00;;;4.30;99.90;;;;;;5032063;28;20942;-86
2020/12/30 07:43:45;;;;;;;19.87;13.63;;;4.30;99.90;;;;;;5033415;28;20435;-86
2020/12/30 07:46:15;;;;;;;14.20;12.17;;;4.30;99.90;;;;;;5033333;28;20923;-87
2020/12/30 07:48:45;;;;;;;18.90;12.03;;;4.30;99.90;;;;;;5033249;28;20540;-84
2020/12/30 07:51:13;;;;;;;16.43;12.10;;;4.30;99.90;;;;;;5020191;28;20488;-85
2020/12/30 07:53:40;;;;;;;15.37;11.47;;;4.40;99.90;;;;;;5014682;28;20561;-85
2020/12/30 07:56:20;;;;;;;18.10;12.63;;;4.40;99.90;;;;;;5013730;28;20530;-85
2020/12/30 07:58:48;;;;;;;19.13;13.53;;;4.30;99.90;;;;;;5033956;28;20461;-86
2020/12/30 08:01:16;;;;;;;17.57;12.07;;;4.30;99.90;;;;;;5035567;28;20857;-85
2020/12/30 08:03:45;;;;;;;19.03;12.40;;;4.30;99.90;;;;;;5036792;28;20462;-87
2020/12/30 08:06:15;;;;;;;17.87;13.23;;;4.30;99.90;;;;;;5042183;28;20442;-87
2020/12/30 08:08:47;;;;;;;27.23;14.73;;;4.40;99.90;;;;;;5036467;28;20816;-86
2020/12/30 08:11:20;;;;;;;16.07;12.37;;;4.40;99.90;;;;;;5036257;28;20441;-86
2020/12/30 08:13:46;;;;;;;16.73;11.17;;;4.40;99.90;;;;;;5037969;28;20470;-87
2020/12/30 08:16:14;;;;;;;16.57;13.33;;;4.40;99.90;;;;;;5043246;28;20564;-90
2020/12/30 08:18:50;;;;;;;18.60;13.03;;;4.30;99.90;;;;;;5037228;28;20453;-89
2020/12/30 08:21:22;;;;;;;18.70;12.17;;;4.30;99.90;;;;;;5034901;28;20486;-89
2020/12/30 08:23:49;;;;;;;19.33;13.13;;;4.40;99.90;;;;;;5035646;28;20475;-88
2020/12/30 08:26:16;;;;;;;17.00;13.00;;;4.30;99.90;;;;;;5036855;28;20985;-90
2020/12/30 08:28:43;;;;;;;18.43;13.13;;;4.30;99.90;;;;;;5039688;28;20936;-91
2020/12/30 08:31:16;;;;;;;22.63;14.33;;;4.40;99.90;;;;;;5036305;28;20466;-89
2020/12/30 08:33:46;;;;;;;21.83;13.87;;;4.40;99.90;;;;;;5017083;28;20472;-88
2020/12/30 08:36:25;;;;;;;18.40;13.43;;;4.30;99.90;;;;;;5018832;28;20527;-89
2020/12/30 08:38:54;;;;;;;22.33;13.30;;;4.20;99.90;;;;;;5017816;28;20464;-89
2020/12/30 08:41:28;;;;;;;19.27;12.23;;;4.30;99.90;;;;;;5038430;28;20449;-89
2020/12/30 08:43:59;;;;;;;17.93;11.73;;;4.30;99.90;;;;;;5040736;28;20540;-91
2020/12/30 08:46:27;;;;;;;20.57;12.60;;;4.30;99.90;;;;;;5043201;28;20458;-90
2020/12/30 08:48:58;;;;;;;15.50;12.33;;;4.40;99.90;;;;;;5038234;28;20454;-90
2020/12/30 08:51:33;;;;;;;21.00;13.00;;;4.40;99.90;;;;;;5034125;28;20464;-90
2020/12/30 08:54:00;;;;;;;18.20;13.67;;;4.40;99.90;;;;;;5025522;28;20858;-90
2020/12/30 08:56:27;;;;;;;16.33;12.07;;;4.40;99.90;;;;;;5044775;28;20539;-91
2020/12/30 08:58:55;;;;;;;18.93;13.70;;;4.40;99.90;;;;;;5036450;28;20893;-90
2020/12/30 09:01:22;;;;;;;17.90;12.43;;;4.30;99.90;;;;;;5024798;28;21038;-89
2020/12/30 09:03:49;;;;;;;19.00;12.80;;;4.30;99.90;;;;;;5016162;28;20451;-88
2020/12/30 09:06:29;;;;;;;19.10;13.97;;;4.40;99.90;;;;;;5034760;28;20440;-90
2020/12/30 09:09:08;;;;;;;21.90;15.53;;;4.40;99.90;;;;;;5041032;28;20446;-90
2020/12/30 09:11:35;;;;;;;17.80;13.03;;;4.50;99.90;;;;;;5055994;28;20535;-89
2020/12/30 09:14:16;;;;;;;19.77;12.83;;;4.50;99.90;;;;;;5055370;28;20576;-89
2020/12/30 09:16:56;;;;;;;20.07;12.27;;;4.40;99.90;;;;;;5038218;28;21031;-91
2020/12/30 09:19:23;;;;;;;17.43;11.57;;;4.50;99.90;;;;;;5036317;28;20569;-90
2020/12/30 09:21:50;;;;;;;18.23;12.70;;;4.50;99.90;;;;;;5041787;28;20866;-92
2020/12/30 09:24:18;;;;;;;17.33;12.20;;;4.50;99.90;;;;;;5035826;28;20486;-90
2020/12/30 09:26:44;;;;;;;17.67;12.77;;;4.60;99.90;;;;;;5039271;28;20445;-90
2020/12/30 09:29:21;;;;;;;17.83;12.20;;;4.70;99.90;;;;;;5038172;28;20487;-91
2020/12/30 09:31:56;;;;;;;18.60;12.60;;;4.60;99.90;;;;;;5027237;28;20453;-95
2020/12/30 09:34:25;;;;;;;20.23;14.30;;;4.60;99.90;;;;;;5017649;28;20465;-90
2020/12/30 09:36:57;;;;;;;17.80;12.70;;;4.60;99.90;;;;;;5023327;28;20511;-90
2020/12/30 09:39:26;;;;;;;15.10;11.47;;;4.70;99.90;;;;;;5037905;28;20459;-91
2020/12/30 09:42:00;;;;;;;14.03;11.40;;;5.00;99.90;;;;;;5042666;28;20455;-90
2020/12/30 09:44:26;;;;;;;16.50;12.93;;;5.20;99.90;;;;;;5016098;28;20432;-90
2020/12/30 09:46:54;;;;;;;15.97;12.07;;;5.50;99.90;;;;;;5015828;28;20931;-89
2020/12/30 09:49:21;;;;;;;16.53;11.57;;;5.50;99.90;;;;;;5024849;28;20776;-89
2020/12/30 09:51:54;;;;;;;17.90;11.90;;;5.80;99.90;;;;;;5031621;28;20458;-90
2020/12/30 09:54:20;;;;;;;17.30;12.30;;;5.90;99.90;;;;;;5017331;28;20888;-90
2020/12/30 09:56:50;;;;;;;17.17;11.67;;;5.60;99.90;;;;;;5015388;28;20823;-90
2020/12/30 09:59:20;;;;;;;17.53;11.00;;;5.50;99.90;;;;;;5027355;28;20458;-90
2020/12/30 10:01:51;;;;;;;16.87;12.70;;;5.40;99.90;;;;;;5050010;28;20880;-92
2020/12/30 10:04:17;;;;;;;15.50;11.07;;;5.20;99.90;;;;;;5029202;28;20464;-90
2020/12/30 10:06:46;;;;;;;22.20;14.00;;;5.10;99.90;;;;;;5020167;28;20466;-90
2020/12/30 10:09:13;;;;;;;19.97;13.00;;;4.90;99.90;;;;;;5018047;28;20464;-88
2020/12/30 10:11:39;;;;;;;18.40;13.83;;;4.80;99.90;;;;;;5023683;28;20464;-88
2020/12/30 10:14:07;;;;;;;15.30;9.00;;;4.70;99.90;;;;;;5034663;28;20581;-91
2020/12/30 10:16:34;;;;;;;20.70;14.63;;;4.80;99.90;;;;;;5028425;28;20486;-90
2020/12/30 10:19:00;;;;;;;20.73;14.93;;;4.60;99.90;;;;;;5038087;28;20456;-90
2020/12/30 10:21:30;;;;;;;20.77;14.73;;;4.70;99.90;;;;;;5041610;28;20991;-90
2020/12/30 10:23:57;;;;;;;18.90;14.67;;;4.60;99.90;;;;;;5030458;28;20475;-92
2020/12/30 10:26:24;;;;;;;23.37;15.70;;;4.60;99.90;;;;;;5039720;28;20980;-91
2020/12/30 10:28:50;;;;;;;22.83;16.00;;;4.60;99.90;;;;;;5040678;28;20495;-93
2020/12/30 10:31:18;;;;;;;21.43;14.87;;;4.50;99.90;;;;;;5054091;28;20456;-92
2020/12/30 10:33:44;;;;;;;23.80;16.90;;;4.50;99.90;;;;;;5039114;28;20481;-91
2020/12/30 10:36:11;;;;;;;19.40;14.40;;;4.50;99.90;;;;;;5034406;28;20609;-91
2020/12/30 10:38:37;;;;;;;20.13;13.90;;;4.60;99.90;;;;;;5035880;28;20552;-91
2020/12/30 10:41:04;;;;;;;22.97;15.83;;;4.70;99.90;;;;;;5035996;28;20486;-91
2020/12/30 10:43:30;;;;;;;21.57;15.93;;;4.60;99.90;;;;;;5036106;28;20844;-92
2020/12/30 10:45:57;;;;;;;23.70;15.70;;;4.70;99.90;;;;;;5038032;28;20472;-91
2020/12/30 10:48:24;;;;;;;25.50;15.93;;;4.70;99.90;;;;;;5039532;28;20438;-93
2020/12/30 10:50:51;;;;;;;23.30;16.73;;;4.80;99.90;;;;;;5041695;28;20944;-92
2020/12/30 10:53:17;;;;;;;26.37;16.30;;;4.70;99.90;;;;;;5036627;28;20567;-91
2020/12/30 10:55:44;;;;;;;25.30;15.87;;;4.70;99.90;;;;;;5038144;28;20487;-90
2020/12/30 10:58:10;;;;;;;23.60;16.00;;;4.70;99.90;;;;;;5037182;28;20457;-90
2020/12/30 11:00:36;;;;;;;26.17;16.90;;;4.70;99.90;;;;;;5037096;28;20968;-91
2020/12/30 11:03:03;;;;;;;21.37;15.37;;;4.70;99.90;;;;;;5035303;28;20482;-91
2020/12/30 11:05:31;;;;;;;20.53;15.10;;;4.80;99.90;;;;;;5036044;28;20472;-92
2020/12/30 11:07:58;;;;;;;20.37;15.50;;;4.90;99.90;;;;;;5041392;28;20460;-91
2020/12/30 11:10:24;;;;;;;23.23;15.97;;;5.00;99.90;;;;;;5044903;28;20450;-87
2020/12/30 11:12:50;;;;;;;21.67;15.40;;;5.00;99.90;;;;;;5035625;28;20965;-90
2020/12/30 11:15:17;;;;;;;20.40;15.07;;;5.20;99.90;;;;;;5040242;28;20440;-90
2020/12/30 11:17:43;;;;;;;20.17;14.30;;;5.20;99.90;;;;;;5042296;28;20824;-89
2020/12/30 11:20:11;;;;;;;21.40;15.60;;;5.30;99.90;;;;;;5027492;28;20821;-91
2020/12/30 11:22:39;;;;;;;26.63;16.33;;;5.30;99.90;;;;;;5048161;28;20481;-90
2020/12/30 11:25:05;;;;;;;23.13;15.40;;;5.40;99.90;;;;;;5040648;28;20815;-89
2020/12/30 11:27:31;;;;;;;21.93;14.17;;;5.50;99.90;;;;;;5032801;28;20457;-89
2020/12/30 11:29:58;;;;;;;25.20;16.70;;;5.30;99.90;;;;;;5034147;28;20504;-89
2020/12/30 11:32:24;;;;;;;22.50;14.97;;;5.40;99.90;;;;;;5032967;28;20478;-88
2020/12/30 11:34:53;;;;;;;21.27;13.83;;;5.60;99.90;;;;;;5035602;28;20791;-89
2020/12/30 11:37:20;;;;;;;18.93;14.33;;;5.70;99.90;;;;;;5038184;28;20460;-89
2020/12/30 11:39:47;;;;;;;18.00;14.47;;;5.80;99.90;;;;;;5041228;28;20495;-90
2020/12/30 11:42:13;;;;;;;18.73;13.93;;;6.00;99.90;;;;;;5019135;28;20534;-89
2020/12/30 11:44:49;;;;;;;22.23;14.93;;;6.20;99.90;;;;;;5028148;28;20807;-89
2020/12/30 11:47:15;;;;;;;20.00;13.43;;;6.30;99.90;;;;;;5039931;28;20764;-90
2020/12/30 11:49:42;;;;;;;18.17;13.20;;;6.30;99.90;;;;;;5041066;28;20487;-90
2020/12/30 11:52:11;;;;;;;1397.40;696.70;;;6.10;99.90;;;;;;5047816;28;20457;-90
2020/12/30 11:54:37;;;;;;;20.90;14.47;;;5.80;99.90;;;;;;5043893;28;20461;-92
2020/12/30 11:57:05;;;;;;;27.50;18.10;;;5.60;99.90;;;;;;5357182;22;20500;-91
2020/12/30 11:59:32;;;;;;;25.50;15.03;;;5.40;99.90;;;;;;5038353;28;20772;-91
2020/12/30 12:01:58;;;;;;;21.77;14.97;;;5.40;99.90;;;;;;5040432;28;20448;-91
2020/12/30 12:04:24;;;;;;;24.93;17.50;;;5.20;99.90;;;;;;5044724;28;20464;-91
2020/12/30 12:06:51;;;;;;;26.70;16.63;;;5.10;99.90;;;;;;5045044;28;20542;-90
2020/12/30 12:09:18;;;;;;;26.37;17.43;;;5.00;99.90;;;;;;5047579;28;20465;-91
2020/12/30 12:11:44;;;;;;;21.70;15.07;;;4.90;99.90;;;;;;5047633;28;20462;-90
2020/12/30 12:14:12;;;;;;;23.60;16.40;;;4.90;99.90;;;;;;5043979;28;20854;-91
2020/12/30 12:16:38;;;;;;;21.40;14.87;;;4.90;99.90;;;;;;5038013;28;20483;-91
2020/12/30 12:19:05;;;;;;;21.13;14.53;;;4.90;99.90;;;;;;5036814;28;20454;-90
2020/12/30 12:21:31;;;;;;;24.53;16.63;;;5.00;99.90;;;;;;5037638;28;20563;-91
2020/12/30 12:23:57;;;;;;;27.33;16.87;;;5.10;99.90;;;;;;5037437;28;20943;-91
2020/12/30 12:26:25;;;;;;;23.27;15.27;;;5.20;99.90;;;;;;5039591;28;20486;-91
2020/12/30 12:29:00;;;;;;;24.80;16.60;;;5.20;99.90;;;;;;5036989;28;20494;-91
2020/12/30 12:31:27;;;;;;;23.17;15.70;;;5.00;99.90;;;;;;5038527;28;20911;-90
2020/12/30 12:33:54;;;;;;;22.63;17.07;;;5.00;99.90;;;;;;5040112;28;20478;-91
2020/12/30 12:36:21;;;;;;;23.00;16.50;;;5.00;99.90;;;;;;5020944;28;20456;-92
2020/12/30 12:38:48;;;;;;;26.10;16.77;;;5.10;99.90;;;;;;5020782;28;20541;-91
2020/12/30 12:41:15;;;;;;;20.77;14.87;;;5.10;99.90;;;;;;5038735;28;20456;-90
2020/12/30 12:43:44;;;;;;;23.97;15.43;;;5.00;99.90;;;;;;5041615;28;20558;-91
2020/12/30 12:46:14;;;;;;;23.33;15.23;;;5.20;99.90;;;;;;5039548;28;20976;-91
2020/12/30 12:48:42;;;;;;;23.20;14.97;;;5.30;99.90;;;;;;5054656;28;20493;-90